createdAt,value
2019-02-26T00:00:22.209Z,26
2019-02-26T00:01:26.165Z,25.9
2019-02-26T00:02:32.610Z,26.1
2019-02-26T00:03:35.461Z,26.1
2019-02-26T00:04:37.950Z,26
2019-02-26T00:05:40.378Z,25.9
2019-02-26T00:06:45.418Z,25.8
2019-02-26T00:07:50.894Z,26
2019-02-26T00:08:54.055Z,25.8
2019-02-26T00:09:59.455Z,25.9
2019-02-26T00:11:08.467Z,26.1
2019-02-26T00:12:12.287Z,25.9
2019-02-26T00:13:14.423Z,25.9
2019-02-26T00:14:17.684Z,25.9
2019-02-26T00:15:26.189Z,26
2019-02-26T00:16:35.168Z,26
2019-02-26T00:17:40.423Z,26.2
2019-02-26T00:19:44.705Z,26
2019-02-26T00:20:47.135Z,26
2019-02-26T00:21:50.045Z,25.9
2019-02-26T00:22:57.539Z,26
2019-02-26T00:24:01.923Z,26
2019-02-26T00:25:12.641Z,26
2019-02-26T00:26:20.032Z,26.1
2019-02-26T00:27:26.184Z,25.9
2019-02-26T00:28:29.317Z,26
2019-02-26T00:29:32.188Z,25.9
2019-02-26T00:30:35.995Z,26
2019-02-26T00:31:39.362Z,26.2
2019-02-26T00:32:41.527Z,26.2
2019-02-26T00:33:43.669Z,25.8
2019-02-26T00:34:46.117Z,25.8
2019-02-26T00:35:50.152Z,26.2
2019-02-26T00:36:52.641Z,26.3
2019-02-26T00:37:55.676Z,25.9
2019-02-26T00:38:58.908Z,26.1
2019-02-26T00:40:07.381Z,26.2
2019-02-26T00:41:20.271Z,26.3
2019-02-26T00:42:24.198Z,26.1
2019-02-26T00:43:32.365Z,26.3
2019-02-26T00:44:38.806Z,26.1
2019-02-26T00:45:40.953Z,26.5
2019-02-26T00:46:43.389Z,25.8
2019-02-26T00:47:46.280Z,26
2019-02-26T00:48:48.717Z,25.9
2019-02-26T00:49:53.314Z,26.3
2019-02-26T00:50:56.565Z,25.9
2019-02-26T00:52:03.924Z,25.9
2019-02-26T00:53:10.165Z,26.2
2019-02-26T00:54:12.600Z,26.1
2019-02-26T00:55:14.757Z,25.9
2019-02-26T00:56:17.213Z,25.9
2019-02-26T00:57:19.637Z,26.1
2019-02-26T00:58:21.518Z,26
2019-02-26T00:59:23.944Z,26.3
2019-02-26T01:00:26.740Z,26.4
2019-02-26T01:01:30.809Z,26.2
2019-02-26T01:02:32.989Z,26.4
2019-02-26T01:03:35.147Z,26.2
2019-02-26T01:04:39.043Z,26.5
2019-02-26T01:05:50.175Z,26.5
2019-02-26T01:06:52.053Z,26.8
2019-02-26T01:07:54.517Z,26.2
2019-02-26T01:08:58.884Z,26.4
2019-02-26T01:10:04.423Z,26.5
2019-02-26T01:11:08.212Z,26.5
2019-02-26T01:12:11.739Z,26.4
2019-02-26T01:13:15.521Z,26.6
2019-02-26T01:14:18.628Z,26.7
2019-02-26T01:15:26.203Z,26.5
2019-02-26T01:16:28.345Z,26.6
2019-02-26T01:17:31.168Z,26.6
2019-02-26T01:18:37.071Z,26.8
2019-02-26T01:19:40.705Z,26.5
2019-02-26T01:20:48.252Z,26.8
2019-02-26T01:21:49.447Z,26.7
2019-02-26T01:22:51.589Z,26.4
2019-02-26T01:23:54.018Z,26.5
2019-02-26T01:25:02.066Z,26.9
2019-02-26T01:26:04.215Z,26.5
2019-02-26T01:27:06.384Z,26.7
2019-02-26T01:28:08.818Z,26.6
2019-02-26T01:29:16.746Z,26.5
2019-02-26T01:30:23.482Z,26.6
2019-02-26T01:31:26.879Z,26.5
2019-02-26T01:32:32.469Z,26.6
2019-02-26T01:33:34.916Z,26.6
2019-02-26T01:34:38.263Z,26.8
2019-02-26T01:35:43.963Z,26.6
2019-02-26T01:36:47.617Z,26.7
2019-02-26T01:37:53.588Z,26.5
2019-02-26T01:38:56.365Z,26.6
2019-02-26T01:39:58.516Z,26.6
2019-02-26T01:41:00.677Z,26.7
2019-02-26T01:42:03.105Z,26.7
2019-02-26T01:43:05.646Z,26.8
2019-02-26T01:44:08.787Z,26.8
2019-02-26T01:45:10.988Z,26.6
2019-02-26T01:46:14.452Z,26.5
2019-02-26T01:47:19.580Z,26.6
2019-02-26T01:48:23.377Z,26.8
2019-02-26T01:49:26.429Z,26.6
2019-02-26T01:50:30.739Z,26.5
2019-02-26T01:51:42.818Z,26.4
2019-02-26T01:52:49.832Z,26.7
2019-02-26T01:53:53.693Z,26.7
2019-02-26T01:54:57.826Z,26.7
2019-02-26T01:56:04.504Z,26.5
2019-02-26T01:57:08.544Z,26.6
2019-02-26T01:58:10.791Z,26.7
2019-02-26T01:59:18.905Z,26.5
2019-02-26T02:00:21.436Z,26.7
2019-02-26T02:01:26.903Z,26.6
2019-02-26T02:02:30.266Z,26.7
2019-02-26T02:03:32.580Z,26.6
2019-02-26T02:04:36.937Z,26.7
2019-02-26T02:05:39.779Z,26.8
2019-02-26T02:06:46.180Z,26.6
2019-02-26T02:07:49.421Z,26.6
2019-02-26T02:08:55.468Z,26.7
2019-02-26T02:10:00.469Z,26.7
2019-02-26T02:11:04.726Z,26.8
2019-02-26T02:12:11.013Z,26.8
2019-02-26T02:13:12.993Z,26.6
2019-02-26T02:14:17.035Z,26.7
2019-02-26T02:15:21.509Z,26.6
2019-02-26T02:16:24.157Z,26.5
2019-02-26T02:17:30.895Z,26.7
2019-02-26T02:18:35.372Z,26.8
2019-02-26T02:19:37.528Z,26.6
2019-02-26T02:20:39.411Z,26.8
2019-02-26T02:21:41.839Z,26.7
2019-02-26T02:22:44.481Z,26.7
2019-02-26T02:23:48.650Z,26.8
2019-02-26T02:24:55.653Z,26.8
2019-02-26T02:26:00.386Z,26.8
2019-02-26T02:27:03.139Z,26.8
2019-02-26T02:28:05.571Z,26.8
2019-02-26T02:29:07.988Z,26.6
2019-02-26T02:30:15.443Z,26.5
2019-02-26T02:31:18.925Z,26.7
2019-02-26T02:32:26.081Z,26.7
2019-02-26T02:33:30.066Z,26.8
2019-02-26T02:34:36.547Z,26.7
2019-02-26T02:35:39.056Z,26.6
2019-02-26T02:36:41.206Z,26.9
2019-02-26T02:37:43.641Z,26.7
2019-02-26T02:38:46.060Z,26.8
2019-02-26T02:39:48.491Z,26.6
2019-02-26T02:40:52.454Z,26.6
2019-02-26T02:41:55.641Z,26.6
2019-02-26T02:42:58.053Z,26.7
2019-02-26T02:44:03.505Z,26.6
2019-02-26T02:45:08.219Z,26.6
2019-02-26T02:46:10.963Z,26.7
2019-02-26T02:47:13.389Z,26.5
2019-02-26T02:48:15.542Z,26.6
2019-02-26T02:49:18.042Z,26.8
2019-02-26T02:50:20.200Z,26.7
2019-02-26T02:51:22.351Z,26.7
2019-02-26T02:52:30.221Z,26.6
2019-02-26T02:53:33.273Z,26.9
2019-02-26T02:54:35.718Z,26.8
2019-02-26T02:55:43.958Z,27
2019-02-26T02:56:46.153Z,27
2019-02-26T02:57:49.857Z,26.9
2019-02-26T02:58:53.560Z,26.7
2019-02-26T02:59:56.838Z,26.7
2019-02-26T03:01:02.689Z,26.7
2019-02-26T03:02:04.829Z,26.7
2019-02-26T03:03:06.987Z,26.8
2019-02-26T03:04:09.136Z,27
2019-02-26T03:05:15.295Z,26.7
2019-02-26T03:06:17.733Z,26.8
2019-02-26T03:07:20.843Z,26.9
2019-02-26T03:08:27.129Z,26.8
2019-02-26T03:09:31.091Z,26.8
2019-02-26T03:10:39.366Z,27
2019-02-26T03:11:44.021Z,26.8
2019-02-26T03:12:48.472Z,26.8
2019-02-26T03:13:53.593Z,26.8
2019-02-26T03:14:58.859Z,26.8
2019-02-26T03:16:01.767Z,26.8
2019-02-26T03:17:06.327Z,26.7
2019-02-26T03:18:11.829Z,26.8
2019-02-26T03:19:15.175Z,26.8
2019-02-26T03:20:19.609Z,26.8
2019-02-26T03:21:30.605Z,26.8
2019-02-26T03:22:34.153Z,26.7
2019-02-26T03:23:40.957Z,26.7
2019-02-26T03:24:43.130Z,26.8
2019-02-26T03:25:47.101Z,26.7
2019-02-26T03:26:55.371Z,26.7
2019-02-26T03:27:57.810Z,26.8
2019-02-26T03:29:00.270Z,26.8
2019-02-26T03:30:02.705Z,26.8
2019-02-26T03:31:05.141Z,26.6
2019-02-26T03:32:07.572Z,26.6
2019-02-26T03:33:10.042Z,26.9
2019-02-26T03:34:15.531Z,26.7
2019-02-26T03:35:19.478Z,26.7
2019-02-26T03:36:22.434Z,26.7
2019-02-26T03:37:25.796Z,26.7
2019-02-26T03:38:34.702Z,26.8
2019-02-26T03:39:37.137Z,26.6
2019-02-26T03:40:39.570Z,26.6
2019-02-26T03:41:43.158Z,26.7
2019-02-26T03:42:46.965Z,26.7
2019-02-26T03:43:49.392Z,26.6
2019-02-26T03:44:51.824Z,26.6
2019-02-26T03:45:54.252Z,26.5
2019-02-26T03:46:56.674Z,26.8
2019-02-26T03:47:58.831Z,26.7
2019-02-26T03:49:02.670Z,26.7
2019-02-26T03:50:08.650Z,26.6
2019-02-26T03:52:15.298Z,26.6
2019-02-26T03:53:18.061Z,26.7
2019-02-26T03:54:20.490Z,26.6
2019-02-26T03:55:22.924Z,26.9
2019-02-26T03:56:25.098Z,26.7
2019-02-26T03:57:27.541Z,26.9
2019-02-26T03:58:29.965Z,26.6
2019-02-26T03:59:32.320Z,26.7
2019-02-26T04:00:35.575Z,26.7
2019-02-26T04:01:39.420Z,26.8
2019-02-26T04:02:45.041Z,26.7
2019-02-26T04:03:46.834Z,26.8
2019-02-26T04:04:53.855Z,26.5
2019-02-26T04:05:56.977Z,26.7
2019-02-26T04:07:01.297Z,26.6
2019-02-26T04:08:04.512Z,26.6
2019-02-26T04:09:08.449Z,26.5
2019-02-26T04:10:11.438Z,26.6
2019-02-26T04:11:14.386Z,26.4
2019-02-26T04:12:20.658Z,26.6
2019-02-26T04:13:22.716Z,26.7
2019-02-26T04:14:26.185Z,26.5
2019-02-26T04:15:32.771Z,26.6
2019-02-26T04:16:35.248Z,26.4
2019-02-26T04:17:42.171Z,26.2
2019-02-26T04:18:44.721Z,26.6
2019-02-26T04:19:51.637Z,26.4
2019-02-26T04:20:54.087Z,26.5
2019-02-26T04:21:59.550Z,26.2
2019-02-26T04:23:01.723Z,26.4
2019-02-26T04:24:05.838Z,26.5
2019-02-26T04:25:09.410Z,26.4
2019-02-26T04:26:15.880Z,26.4
2019-02-26T04:27:16.642Z,26.3
2019-02-26T04:28:19.066Z,26.7
2019-02-26T04:29:21.523Z,26.1
2019-02-26T04:30:23.965Z,26.1
2019-02-26T04:31:26.110Z,26.5
2019-02-26T04:32:28.534Z,26.2
2019-02-26T04:33:32.646Z,26.1
2019-02-26T04:34:38.297Z,26.2
2019-02-26T04:35:42.226Z,26.2
2019-02-26T04:36:48.282Z,26.2
2019-02-26T04:37:52.974Z,26.5
2019-02-26T04:38:55.746Z,26.3
2019-02-26T04:39:59.100Z,26.1
2019-02-26T04:41:06.041Z,26.3
2019-02-26T04:42:10.841Z,26.2
2019-02-26T04:43:13.162Z,26.2
2019-02-26T04:44:15.626Z,26.3
2019-02-26T04:45:21.085Z,26.5
2019-02-26T04:46:25.426Z,26.4
2019-02-26T04:47:30.553Z,26.5
2019-02-26T04:48:34.326Z,26.3
2019-02-26T04:49:40.089Z,26.1
2019-02-26T04:50:44.504Z,26.2
2019-02-26T04:51:48.323Z,26.4
2019-02-26T04:52:51.790Z,26
2019-02-26T04:53:59.408Z,26.3
2019-02-26T04:55:04.126Z,26.2
2019-02-26T04:56:11.956Z,26.2
2019-02-26T04:57:11.269Z,26.2
2019-02-26T04:58:15.434Z,26.3
2019-02-26T04:59:18.680Z,26.2
2019-02-26T05:00:20.547Z,26.5
2019-02-26T05:01:29.140Z,26.2
2019-02-26T05:02:31.558Z,26.3
2019-02-26T05:03:33.974Z,26.2
2019-02-26T05:04:36.791Z,26.3
2019-02-26T05:05:42.931Z,26.1
2019-02-26T05:06:45.084Z,25.9
2019-02-26T05:07:49.837Z,26.3
2019-02-26T05:08:52.506Z,26.2
2019-02-26T05:09:59.304Z,26.1
2019-02-26T05:11:02.969Z,26.4
2019-02-26T05:12:04.850Z,26.2
2019-02-26T05:13:09.369Z,26.1
2019-02-26T05:14:14.850Z,26.4
2019-02-26T05:15:20.266Z,25.9
2019-02-26T05:16:25.802Z,26.2
2019-02-26T05:17:30.207Z,26.2
2019-02-26T05:18:34.492Z,26
2019-02-26T05:19:39.403Z,26.1
2019-02-26T05:20:44.645Z,26.1
2019-02-26T05:21:47.117Z,26
2019-02-26T05:22:49.292Z,26.1
2019-02-26T05:23:55.475Z,26.3
2019-02-26T05:24:59.733Z,26
2019-02-26T05:26:05.119Z,26.2
2019-02-26T05:27:09.336Z,26
2019-02-26T05:28:14.595Z,26.1
2019-02-26T05:29:17.142Z,26.1
2019-02-26T05:30:22.292Z,26.2
2019-02-26T05:31:24.561Z,26.2
2019-02-26T05:32:29.450Z,26
2019-02-26T05:33:32.822Z,26
2019-02-26T05:34:37.046Z,26.2
2019-02-26T05:35:44.113Z,26.1
2019-02-26T05:36:47.551Z,26.2
2019-02-26T05:37:49.711Z,26.1
2019-02-26T05:38:54.544Z,25.9
2019-02-26T05:39:57.133Z,26.3
2019-02-26T05:40:59.539Z,26.1
2019-02-26T05:42:03.861Z,25.8
2019-02-26T05:43:06.963Z,26
2019-02-26T05:44:10.614Z,26
2019-02-26T05:45:13.228Z,26.1
2019-02-26T05:46:16.493Z,26.3
2019-02-26T05:47:21.396Z,26.1
2019-02-26T05:48:27.401Z,26.2
2019-02-26T05:49:32.128Z,26.3
2019-02-26T05:50:36.085Z,26.2
2019-02-26T05:51:39.798Z,26.2
2019-02-26T05:52:42.234Z,25.8
2019-02-26T05:53:44.391Z,26
2019-02-26T05:54:46.830Z,26.1
2019-02-26T05:55:51.127Z,26
2019-02-26T05:56:56.698Z,26
2019-02-26T05:57:58.879Z,26
2019-02-26T05:59:02.555Z,26.2
2019-02-26T06:00:08.194Z,26
2019-02-26T06:01:16.171Z,26.1
2019-02-26T06:02:19.497Z,26.1
2019-02-26T06:03:23.723Z,26.1
2019-02-26T06:04:26.148Z,26.1
2019-02-26T06:05:28.321Z,26.2
2019-02-26T06:06:30.750Z,26.3
2019-02-26T06:07:35.593Z,25.9
2019-02-26T06:08:39.051Z,26.2
2019-02-26T06:09:42.925Z,26.2
2019-02-26T06:10:48.376Z,25.9
2019-02-26T06:11:50.790Z,26.3
2019-02-26T06:12:52.964Z,26.2
2019-02-26T06:13:56.237Z,26
2019-02-26T06:15:01.926Z,26.2
2019-02-26T06:16:07.337Z,26.2
2019-02-26T06:17:12.504Z,26.1
2019-02-26T06:18:15.043Z,26.3
2019-02-26T06:19:18.214Z,26.1
2019-02-26T06:20:20.786Z,26
2019-02-26T06:21:28.983Z,25.9
2019-02-26T06:22:31.772Z,26.1
2019-02-26T06:23:37.442Z,26.1
2019-02-26T06:24:41.518Z,25.9
2019-02-26T06:25:43.689Z,26.1
2019-02-26T06:26:45.671Z,25.9
2019-02-26T06:27:47.832Z,26.2
2019-02-26T06:28:50.362Z,26.1
2019-02-26T06:29:55.436Z,26.2
2019-02-26T06:30:59.885Z,26
2019-02-26T06:32:02.957Z,26.1
2019-02-26T06:33:09.626Z,25.9
2019-02-26T06:34:14.267Z,26
2019-02-26T06:35:19.833Z,26
2019-02-26T06:36:23.370Z,26
2019-02-26T06:37:33.643Z,26
2019-02-26T06:38:37.249Z,26.2
2019-02-26T06:39:39.412Z,26
2019-02-26T06:40:42.630Z,25.8
2019-02-26T06:41:47.202Z,25.8
2019-02-26T06:42:53.183Z,26
2019-02-26T06:43:55.345Z,25.9
2019-02-26T06:44:57.495Z,26
2019-02-26T06:46:00.157Z,25.9
2019-02-26T06:47:06.884Z,26.1
2019-02-26T06:48:13.132Z,25.9
2019-02-26T06:49:17.720Z,26.1
2019-02-26T06:50:20.809Z,25.8
2019-02-26T06:51:24.154Z,26.1
2019-02-26T06:52:29.844Z,25.9
2019-02-26T06:53:32.921Z,26
2019-02-26T06:54:35.334Z,26.2
2019-02-26T06:55:37.493Z,26.1
2019-02-26T06:56:43.374Z,25.8
2019-02-26T06:57:46.939Z,25.8
2019-02-26T06:58:49.618Z,25.9
2019-02-26T06:59:53.604Z,26
2019-02-26T07:00:57.069Z,25.9
2019-02-26T07:01:59.495Z,25.9
2019-02-26T07:03:02.619Z,26.2
2019-02-26T07:04:04.871Z,25.7
2019-02-26T07:05:07.296Z,25.8
2019-02-26T07:06:09.461Z,25.9
2019-02-26T07:07:14.269Z,26
2019-02-26T07:08:16.871Z,26.1
2019-02-26T07:09:22.331Z,26
2019-02-26T07:10:26.655Z,26.1
2019-02-26T07:11:31.215Z,26.2
2019-02-26T07:12:38.692Z,26.1
2019-02-26T07:13:43.850Z,25.7
2019-02-26T07:14:48.307Z,26
2019-02-26T07:15:51.868Z,25.9
2019-02-26T07:16:56.501Z,26
2019-02-26T07:18:00.623Z,25.8
2019-02-26T07:19:06.490Z,25.8
2019-02-26T07:20:09.274Z,26.1
2019-02-26T07:21:11.433Z,25.9
2019-02-26T07:22:15.845Z,25.9
2019-02-26T07:23:20.019Z,26
2019-02-26T07:24:24.363Z,25.9
2019-02-26T07:25:29.079Z,26.1
2019-02-26T07:26:38.614Z,26
2019-02-26T07:27:41.777Z,25.9
2019-02-26T07:28:44.472Z,25.9
2019-02-26T07:29:52.436Z,25.9
2019-02-26T07:30:54.325Z,25.8
2019-02-26T07:31:56.951Z,26
2019-02-26T07:33:02.856Z,26.2
2019-02-26T07:34:10.803Z,25.7
2019-02-26T07:35:14.282Z,26
2019-02-26T07:36:18.431Z,25.9
2019-02-26T07:37:22.909Z,26.1
2019-02-26T07:38:27.462Z,25.9
2019-02-26T07:39:30.034Z,25.7
2019-02-26T07:40:33.011Z,26.1
2019-02-26T07:41:38.982Z,25.8
2019-02-26T07:42:46.555Z,25.9
2019-02-26T07:43:51.925Z,25.9
2019-02-26T07:44:56.789Z,25.8
2019-02-26T07:45:58.950Z,25.7
2019-02-26T07:47:03.546Z,25.8
2019-02-26T07:48:05.796Z,25.8
2019-02-26T07:49:07.680Z,25.9
2019-02-26T07:50:12.166Z,25.8
2019-02-26T07:51:14.817Z,26
2019-02-26T07:52:16.966Z,26.1
2019-02-26T07:53:20.150Z,25.9
2019-02-26T07:54:23.821Z,26.1
2019-02-26T07:55:27.539Z,25.8
2019-02-26T07:56:35.797Z,26.1
2019-02-26T07:57:37.959Z,25.9
2019-02-26T07:58:48.578Z,25.9
2019-02-26T07:59:50.741Z,26
2019-02-26T08:00:53.136Z,25.9
2019-02-26T08:01:55.268Z,25.8
2019-02-26T08:02:59.651Z,25.8
2019-02-26T08:04:06.677Z,26
2019-02-26T08:05:13.601Z,25.9
2019-02-26T08:06:19.284Z,25.8
2019-02-26T08:07:22.224Z,26
2019-02-26T08:08:26.127Z,26
2019-02-26T08:09:28.293Z,25.9
2019-02-26T08:10:39.247Z,25.8
2019-02-26T08:11:41.221Z,26.1
2019-02-26T08:12:47.409Z,26
2019-02-26T08:13:51.591Z,25.9
2019-02-26T08:14:59.775Z,25.7
2019-02-26T08:16:05.271Z,25.9
2019-02-26T08:17:07.727Z,25.9
2019-02-26T08:18:09.873Z,26.2
2019-02-26T08:19:12.023Z,26
2019-02-26T08:20:14.819Z,26
2019-02-26T08:21:18.014Z,25.9
2019-02-26T08:22:22.398Z,25.9
2019-02-26T08:23:30.209Z,25.9
2019-02-26T08:24:32.578Z,25.8
2019-02-26T08:25:35.018Z,25.9
2019-02-26T08:26:38.548Z,25.9
2019-02-26T08:27:42.160Z,26
2019-02-26T08:28:45.804Z,26
2019-02-26T08:29:51.654Z,25.9
2019-02-26T08:30:57.101Z,25.9
2019-02-26T08:32:01.911Z,25.7
2019-02-26T08:33:06.788Z,26.1
2019-02-26T08:34:12.584Z,26.1
2019-02-26T08:35:17.825Z,25.8
2019-02-26T08:36:19.412Z,25.9
2019-02-26T08:37:21.607Z,25.9
2019-02-26T08:38:23.751Z,25.9
2019-02-26T08:39:29.696Z,26.1
2019-02-26T08:40:32.126Z,26
2019-02-26T08:41:34.295Z,26
2019-02-26T08:42:36.448Z,26.1
2019-02-26T08:43:42.075Z,26
2019-02-26T08:44:46.038Z,26.1
2019-02-26T08:45:48.281Z,25.9
2019-02-26T08:46:50.703Z,26.1
2019-02-26T08:47:53.132Z,26
2019-02-26T08:48:55.287Z,26.2
2019-02-26T08:49:58.855Z,25.9
2019-02-26T08:51:07.794Z,26.1
2019-02-26T08:52:09.649Z,25.9
2019-02-26T08:53:12.117Z,25.8
2019-02-26T08:54:20.467Z,26
2019-02-26T08:55:21.484Z,25.9
2019-02-26T08:56:26.198Z,26
2019-02-26T08:57:28.932Z,26
2019-02-26T08:58:31.085Z,26.1
2019-02-26T08:59:33.509Z,25.7
2019-02-26T09:00:35.945Z,25.9
2019-02-26T09:01:37.805Z,26.1
2019-02-26T09:02:41.120Z,25.8
2019-02-26T09:03:44.961Z,25.9
2019-02-26T09:04:56.220Z,25.9
2019-02-26T09:06:12.591Z,26.2
2019-02-26T09:07:13.995Z,25.9
2019-02-26T09:08:26.872Z,25.8
2019-02-26T09:09:33.289Z,25.7
2019-02-26T09:10:36.341Z,26
2019-02-26T09:11:44.956Z,26
2019-02-26T09:12:48.782Z,26.1
2019-02-26T09:13:56.265Z,26.1
2019-02-26T09:14:59.376Z,26
2019-02-26T09:16:03.005Z,26
2019-02-26T09:17:06.796Z,25.7
2019-02-26T09:18:09.231Z,26
2019-02-26T09:19:11.394Z,26.2
2019-02-26T09:20:14.655Z,26
2019-02-26T09:21:18.002Z,26
2019-02-26T09:22:23.529Z,25.8
2019-02-26T09:23:30.518Z,26.1
2019-02-26T09:24:34.596Z,26.2
2019-02-26T09:25:37.236Z,25.9
2019-02-26T09:26:39.387Z,26
2019-02-26T09:27:42.884Z,25.8
2019-02-26T09:28:47.443Z,26
2019-02-26T09:29:55.495Z,26.2
2019-02-26T09:31:00.929Z,25.9
2019-02-26T09:32:06.481Z,26.1
2019-02-26T09:33:08.973Z,25.9
2019-02-26T09:34:12.987Z,26.2
2019-02-26T09:35:16.790Z,25.9
2019-02-26T09:36:21.411Z,25.9
2019-02-26T09:37:24.831Z,25.9
2019-02-26T09:38:26.986Z,26.1
2019-02-26T09:39:29.407Z,25.9
2019-02-26T09:40:37.953Z,26
2019-02-26T09:41:42.597Z,26
2019-02-26T09:42:46.722Z,25.9
2019-02-26T09:43:50.348Z,25.9
2019-02-26T09:44:53.428Z,26.1
2019-02-26T09:45:57.750Z,26
2019-02-26T09:47:02.340Z,26.1
2019-02-26T09:48:05.159Z,26
2019-02-26T09:49:10.452Z,26.1
2019-02-26T09:50:12.828Z,25.9
2019-02-26T09:51:23.599Z,26
2019-02-26T09:52:27.661Z,26
2019-02-26T09:53:30.976Z,25.9
2019-02-26T09:54:37.580Z,26.2
2019-02-26T09:55:38.126Z,26.2
2019-02-26T09:56:40.261Z,26.1
2019-02-26T09:57:42.681Z,25.9
2019-02-26T09:58:46.251Z,26.1
2019-02-26T09:59:52.016Z,26
2019-02-26T10:00:57.680Z,25.8
2019-02-26T10:02:01.247Z,25.9
2019-02-26T10:03:09.872Z,26
2019-02-26T10:04:12.594Z,26
2019-02-26T10:05:16.270Z,26
2019-02-26T10:06:21.550Z,26
2019-02-26T10:07:26.110Z,25.9
2019-02-26T10:08:30.703Z,25.7
2019-02-26T10:09:35.207Z,25.9
2019-02-26T10:10:39.743Z,26
2019-02-26T10:11:44.322Z,25.9
2019-02-26T10:12:47.030Z,26
2019-02-26T10:13:53.930Z,26
2019-02-26T10:14:59.524Z,26.1
2019-02-26T10:16:03.999Z,26.2
2019-02-26T10:17:06.320Z,25.9
2019-02-26T10:18:14.612Z,26
2019-02-26T10:19:17.606Z,26
2019-02-26T10:20:23.167Z,25.9
2019-02-26T10:21:26.750Z,26
2019-02-26T10:22:33.134Z,26.1
2019-02-26T10:23:34.137Z,26.1
2019-02-26T10:24:37.935Z,26.1
2019-02-26T10:25:41.568Z,26
2019-02-26T10:26:44.001Z,26.1
2019-02-26T10:27:47.861Z,25.8
2019-02-26T10:28:56.268Z,26.1
2019-02-26T10:29:55.301Z,26.3
2019-02-26T10:30:59.619Z,26.2
2019-02-26T10:32:02.145Z,26
2019-02-26T10:33:04.573Z,26
2019-02-26T10:34:08.478Z,25.8
2019-02-26T10:35:14.063Z,25.8
2019-02-26T10:36:18.369Z,26
2019-02-26T10:37:20.871Z,26
2019-02-26T10:38:24.167Z,26.1
2019-02-26T10:39:28.428Z,26
2019-02-26T10:40:35.480Z,26.2
2019-02-26T10:41:39.797Z,26
2019-02-26T10:42:42.783Z,26.1
2019-02-26T10:43:47.375Z,25.9
2019-02-26T10:44:49.803Z,25.8
2019-02-26T10:45:54.404Z,25.9
2019-02-26T10:46:58.216Z,26
2019-02-26T10:48:02.187Z,26
2019-02-26T10:49:04.615Z,26
2019-02-26T10:50:07.050Z,26
2019-02-26T10:51:16.779Z,26.1
2019-02-26T10:52:23.967Z,26
2019-02-26T10:53:30.172Z,26.2
2019-02-26T10:54:36.595Z,26
2019-02-26T10:55:39.185Z,26.2
2019-02-26T10:56:44.359Z,26.2
2019-02-26T10:57:47.769Z,25.9
2019-02-26T10:58:54.674Z,26
2019-02-26T10:59:57.548Z,26
2019-02-26T11:01:02.332Z,26
2019-02-26T11:02:05.271Z,26.2
2019-02-26T11:03:09.071Z,25.8
2019-02-26T11:04:15.350Z,26.2
2019-02-26T11:05:20.724Z,25.8
2019-02-26T11:06:22.511Z,26.2
2019-02-26T11:07:26.331Z,25.9
2019-02-26T11:08:30.510Z,26.1
2019-02-26T11:09:34.411Z,26
2019-02-26T11:10:39.878Z,26.2
2019-02-26T11:11:42.297Z,26
2019-02-26T11:12:45.729Z,26.2
2019-02-26T11:13:51.722Z,25.9
2019-02-26T11:14:56.253Z,25.9
2019-02-26T11:16:02.947Z,26
2019-02-26T11:17:05.577Z,25.8
2019-02-26T11:18:08.909Z,26
2019-02-26T11:19:12.988Z,26.2
2019-02-26T11:20:15.414Z,25.9
2019-02-26T11:21:24.209Z,25.8
2019-02-26T11:22:27.886Z,26.1
2019-02-26T11:23:31.823Z,26
2019-02-26T11:24:36.141Z,26
2019-02-26T11:25:38.524Z,26.1
2019-02-26T11:26:41.301Z,26.1
2019-02-26T11:27:46.745Z,26.1
2019-02-26T11:28:50.846Z,26.1
2019-02-26T11:29:54.583Z,26.1
2019-02-26T11:31:00.537Z,26
2019-02-26T11:32:04.378Z,25.9
2019-02-26T11:33:08.542Z,25.9
2019-02-26T11:34:13.320Z,25.9
2019-02-26T11:35:17.523Z,26
2019-02-26T11:36:20.808Z,26
2019-02-26T11:37:24.689Z,25.9
2019-02-26T11:38:30.309Z,25.9
2019-02-26T11:39:36.720Z,26.1
2019-02-26T11:40:39.150Z,26.2
2019-02-26T11:41:41.580Z,26.1
2019-02-26T11:42:44.452Z,26.1
2019-02-26T11:43:48.434Z,26
2019-02-26T11:44:50.300Z,26
2019-02-26T11:45:52.471Z,25.9
2019-02-26T11:46:56.433Z,26
2019-02-26T11:48:00.883Z,25.9
2019-02-26T11:49:04.780Z,26.1
2019-02-26T11:50:09.230Z,25.9
2019-02-26T11:51:16.801Z,26
2019-02-26T11:52:20.131Z,26
2019-02-26T11:53:22.665Z,25.9
2019-02-26T11:54:24.821Z,26
2019-02-26T11:55:32.436Z,26
2019-02-26T11:56:38.356Z,25.8
2019-02-26T11:57:43.089Z,26.1
2019-02-26T11:58:46.650Z,26
2019-02-26T11:59:49.096Z,26.1
2019-02-26T12:00:51.059Z,25.8
2019-02-26T12:01:54.117Z,26
2019-02-26T12:03:00.062Z,25.9
2019-02-26T12:04:04.023Z,26
2019-02-26T12:05:08.038Z,25.8
2019-02-26T12:06:12.771Z,25.6
2019-02-26T12:07:14.928Z,25.7
2019-02-26T12:08:19.390Z,26
2019-02-26T12:09:24.942Z,26
2019-02-26T12:10:29.638Z,25.9
2019-02-26T12:11:32.357Z,26
2019-02-26T12:12:36.692Z,26
2019-02-26T12:13:40.008Z,26.1
2019-02-26T12:14:47.966Z,25.8
2019-02-26T12:15:50.541Z,25.9
2019-02-26T12:16:52.966Z,26.1
2019-02-26T12:17:56.393Z,26
2019-02-26T12:19:01.341Z,26
2019-02-26T12:20:07.277Z,26.1
2019-02-26T12:21:10.415Z,25.9
2019-02-26T12:22:14.622Z,26
2019-02-26T12:23:22.695Z,26
2019-02-26T12:24:27.060Z,26.3
2019-02-26T12:25:33.886Z,25.9
2019-02-26T12:26:36.328Z,26
2019-02-26T12:27:39.029Z,25.9
2019-02-26T12:28:44.046Z,26
2019-02-26T12:29:48.264Z,26.1
2019-02-26T12:30:50.989Z,26.1
2019-02-26T12:31:55.518Z,25.9
2019-02-26T12:32:58.391Z,26
2019-02-26T12:34:00.531Z,25.8
2019-02-26T12:35:03.389Z,26
2019-02-26T12:36:09.754Z,26
2019-02-26T12:37:12.576Z,26
2019-02-26T12:38:18.699Z,25.8
2019-02-26T12:39:22.072Z,25.8
2019-02-26T12:40:25.413Z,26.1
2019-02-26T12:41:27.694Z,26.1
2019-02-26T12:42:30.132Z,25.9
2019-02-26T12:43:33.105Z,26.1
2019-02-26T12:44:42.421Z,26.1
2019-02-26T12:45:44.482Z,26
2019-02-26T12:46:47.713Z,26
2019-02-26T12:47:53.000Z,26
2019-02-26T12:48:56.593Z,25.9
2019-02-26T12:50:01.640Z,26.1
2019-02-26T12:51:04.703Z,25.9
2019-02-26T12:52:09.760Z,26.1
2019-02-26T12:53:14.946Z,25.9
2019-02-26T12:54:16.895Z,25.7
2019-02-26T12:55:19.320Z,25.9
2019-02-26T12:56:26.959Z,26
2019-02-26T12:58:33.334Z,26
2019-02-26T12:59:35.477Z,25.9
2019-02-26T13:00:41.260Z,26.1
2019-02-26T13:01:46.181Z,26.2
2019-02-26T13:02:49.309Z,26.1
2019-02-26T13:03:55.074Z,26.1
2019-02-26T13:04:57.843Z,25.8
2019-02-26T13:06:00.006Z,26.3
2019-02-26T13:07:09.168Z,25.9
2019-02-26T13:08:13.294Z,25.9
2019-02-26T13:09:16.863Z,26.2
2019-02-26T13:10:19.332Z,26.2
2019-02-26T13:11:24.818Z,26
2019-02-26T13:12:29.471Z,26
2019-02-26T13:13:31.593Z,26.1
2019-02-26T13:14:33.840Z,26.1
2019-02-26T13:15:36.269Z,26.2
2019-02-26T13:16:37.855Z,26.1
2019-02-26T13:17:40.287Z,25.8
2019-02-26T13:18:47.842Z,25.9
2019-02-26T13:19:54.598Z,26
2019-02-26T13:20:59.268Z,26.2
2019-02-26T13:22:06.523Z,26
2019-02-26T13:23:20.501Z,26.1
2019-02-26T13:25:17.736Z,26.1
2019-02-26T13:26:24.027Z,25.9
2019-02-26T13:27:26.460Z,25.9
2019-02-26T13:28:29.655Z,26.2
2019-02-26T13:29:32.175Z,26
2019-02-26T13:30:34.749Z,26.3
2019-02-26T13:31:41.859Z,26
2019-02-26T13:33:46.402Z,26
2019-02-26T13:34:51.446Z,26.1
2019-02-26T13:35:58.710Z,26.1
2019-02-26T13:36:59.070Z,26
2019-02-26T13:38:01.505Z,26
2019-02-26T13:39:03.851Z,25.8
2019-02-26T13:40:07.236Z,26.2
2019-02-26T13:41:28.673Z,26.3
2019-02-26T13:42:19.116Z,26.2
2019-02-26T13:43:19.081Z,26
2019-02-26T13:44:20.973Z,25.9
2019-02-26T13:45:23.122Z,25.8
2019-02-26T13:46:25.544Z,26.1
2019-02-26T13:47:27.720Z,26.3
2019-02-26T13:48:30.157Z,26.1
2019-02-26T13:49:32.056Z,25.9
2019-02-26T13:50:34.217Z,26.1
2019-02-26T13:51:36.652Z,26.1
2019-02-26T13:52:39.093Z,25.9
2019-02-26T13:53:41.230Z,26
2019-02-26T13:54:43.390Z,25.9
2019-02-26T13:55:45.258Z,26.1
2019-02-26T13:56:47.688Z,25.8
2019-02-26T13:57:49.867Z,26.2
2019-02-26T13:58:52.028Z,26.2
2019-02-26T13:59:54.468Z,26
2019-02-26T14:00:56.359Z,26.1
2019-02-26T14:01:58.807Z,26.2
2019-02-26T14:03:00.932Z,26.1
2019-02-26T14:04:05.705Z,25.9
2019-02-26T14:05:08.950Z,26.1
2019-02-26T14:06:11.385Z,25.9
2019-02-26T14:07:13.813Z,26.2
2019-02-26T14:08:16.355Z,26
2019-02-26T14:09:18.788Z,25.9
2019-02-26T14:10:21.218Z,26.1
2019-02-26T14:11:23.636Z,26
2019-02-26T14:12:25.789Z,26
2019-02-26T14:13:28.209Z,25.7
2019-02-26T14:14:30.363Z,26
2019-02-26T14:15:32.519Z,26
2019-02-26T14:16:35.535Z,26
2019-02-26T14:17:37.787Z,26.2
2019-02-26T14:18:40.709Z,25.8
2019-02-26T14:19:42.331Z,26
2019-02-26T14:20:45.584Z,26
2019-02-26T14:21:48.080Z,25.8
2019-02-26T14:22:50.225Z,26
2019-02-26T14:23:52.661Z,26.1
2019-02-26T14:24:54.829Z,26
2019-02-26T14:25:57.248Z,25.8
2019-02-26T14:26:58.829Z,26
2019-02-26T14:28:00.988Z,26
2019-02-26T14:29:03.417Z,25.9
2019-02-26T14:30:05.574Z,26.2